Aérodrome :
LOGIN :

S'inscrire | Disclaimer

   EN    FR    IT 

 










Légende :    VFR   VFR Marginal   IFR   IFR Intensif   IFR Très Intensif
Visi : 
Plafond : 
>= 8 km
>= 3000ft
5 à 8 km
1000 à 3000 ft
1500m à 5 km
500 à 1000 ft
800 à 1500m
200 à 500 ft
< 800m
< 200 ft
Symboles :   Orages  Brouillard  Fortes neiges  Fortes précipitations  Vent > 20 kt
SIGMETs :   Divers  Orages  Givrage  Turbulence  Onde Orograph.  Cendres Volcan.







- Altitude de l'aérodrome : 2776 ft
- Code IATA : VLL


LEVD - Valladolid

METARs EXPIRÉS :
  • 241430Z 24009KT 190V280 CAVOK 29/01 Q1021
  • 241400Z 26011KT 220V300 CAVOK 29/03 Q1021
  • 241330Z 24009KT 180V290 CAVOK 28/03 Q1021
  • 241300Z 27008KT 190V330 CAVOK 28/03 Q1021
  • 241230Z 26007KT CAVOK 27/05 Q1022
  • 241200Z 25009KT 190V300 CAVOK 27/03 Q1022

TAF TAF LEVD
Valide du 23 à 18h jusqu'au 24 à 18h UTC


231700Z 2318/2418 26012KT CAVOK TX31/2415Z TN15/2405Z
BECMG 2320/2322 VRB05KT
Pas de NOTAMs connus pour ce terrain.



MET'MAP, la Météo Aéronautique d'un coup d'oeil ! - Copyright ORBIFLY Décembre 2007 - Disclaimer

ORBIFLY MET'MAP TEAM :

Programmation & Développement : Alexandra Zaïnal
Conception & Développement : Baudouin d'Aumeries
Co-Programmation & Développement : Marc-Olivier Méhu
Soutien technique & logistique : Manuel Goepfert

Contact : metmap@orbifly.com




SOURCES & CREDITS :

   NOAA